createdAt,value
2017-09-20T00:00:30.504Z,1034.33
2017-09-20T00:01:30.495Z,1034.32
2017-09-20T00:02:30.487Z,1034.34
2017-09-20T00:03:30.479Z,1034.35
2017-09-20T00:04:30.470Z,1034.35
2017-09-20T00:05:30.459Z,1034.37
2017-09-20T00:06:30.456Z,1034.37
2017-09-20T00:07:30.443Z,1034.36
2017-09-20T00:08:30.435Z,1034.37
2017-09-20T00:09:30.426Z,1034.38
2017-09-20T00:10:30.417Z,1034.38
2017-09-20T00:11:30.408Z,1034.4
2017-09-20T00:12:30.398Z,1034.4
2017-09-20T00:13:30.390Z,1034.37
2017-09-20T00:14:30.382Z,1034.45
2017-09-20T00:15:30.372Z,1034.39
2017-09-20T00:16:30.372Z,1034.39
2017-09-20T00:17:30.355Z,1034.42
2017-09-20T00:18:30.344Z,1034.42
2017-09-20T00:19:30.337Z,1034.38
2017-09-20T00:20:30.328Z,1034.38
2017-09-20T00:21:30.319Z,1034.37
2017-09-20T00:22:30.308Z,1034.33
2017-09-20T00:23:30.300Z,1034.38
2017-09-20T00:24:30.291Z,1034.39
2017-09-20T00:25:30.285Z,1034.36
2017-09-20T00:26:30.273Z,1034.39
2017-09-20T00:27:30.264Z,1034.4
2017-09-20T00:28:30.256Z,1034.37
2017-09-20T00:29:30.245Z,1034.41
2017-09-20T00:30:30.237Z,1034.4
2017-09-20T00:31:30.228Z,1034.43
2017-09-20T00:32:30.219Z,1034.44
2017-09-20T00:33:30.210Z,1034.37
2017-09-20T00:34:30.201Z,1034.38
2017-09-20T00:35:30.192Z,1034.37
2017-09-20T00:36:30.185Z,1034.37
2017-09-20T00:37:30.174Z,1034.35
2017-09-20T00:38:30.168Z,1034.39
2017-09-20T00:39:30.156Z,1034.36
2017-09-20T00:40:30.146Z,1034.36
2017-09-20T00:41:30.137Z,1034.36
2017-09-20T00:42:30.128Z,1034.38
2017-09-20T00:43:30.120Z,1034.42
2017-09-20T00:44:30.109Z,1034.41
2017-09-20T00:45:30.101Z,1034.45
2017-09-20T00:46:30.093Z,1034.43
2017-09-20T00:47:30.084Z,1034.42
2017-09-20T00:48:30.074Z,1034.43
2017-09-20T00:49:30.066Z,1034.46
2017-09-20T00:50:30.056Z,1034.47
2017-09-20T00:51:30.047Z,1034.54
2017-09-20T00:52:30.037Z,1034.53
2017-09-20T00:53:30.028Z,1034.57
2017-09-20T00:54:30.019Z,1034.55
2017-09-20T00:55:30.009Z,1034.56
2017-09-20T00:56:30.001Z,1034.6
2017-09-20T00:57:29.992Z,1034.57
2017-09-20T00:58:29.983Z,1034.59
2017-09-20T00:59:29.973Z,1034.56
2017-09-20T01:00:29.963Z,1034.61
2017-09-20T01:01:29.955Z,1034.61
2017-09-20T01:02:29.945Z,1034.61
2017-09-20T01:03:29.936Z,1034.61
2017-09-20T01:04:29.927Z,1034.57
2017-09-20T01:05:29.917Z,1034.6
2017-09-20T01:06:29.907Z,1034.59
2017-09-20T01:07:29.898Z,1034.56
2017-09-20T01:08:29.889Z,1034.59
2017-09-20T01:09:29.881Z,1034.59
2017-09-20T01:10:29.871Z,1034.61
2017-09-20T01:11:29.862Z,1034.55
2017-09-20T01:12:29.852Z,1034.58
2017-09-20T01:13:29.843Z,1034.6
2017-09-20T01:14:29.834Z,1034.64
2017-09-20T01:15:29.825Z,1034.58
2017-09-20T01:16:29.816Z,1034.58
2017-09-20T01:17:29.806Z,1034.58
2017-09-20T01:18:29.797Z,1034.59
2017-09-20T01:19:29.787Z,1034.58
2017-09-20T01:20:29.778Z,1034.57
2017-09-20T01:21:29.768Z,1034.56
2017-09-20T01:22:29.760Z,1034.56
2017-09-20T01:23:29.749Z,1034.56
2017-09-20T01:24:29.741Z,1034.59
2017-09-20T01:25:29.732Z,1034.58
2017-09-20T01:26:29.722Z,1034.56
2017-09-20T01:27:29.713Z,1034.64
2017-09-20T01:28:29.703Z,1034.63
2017-09-20T01:29:29.695Z,1034.67
2017-09-20T01:30:29.686Z,1034.62
2017-09-20T01:31:29.676Z,1034.66
2017-09-20T01:32:29.666Z,1034.67
2017-09-20T01:33:29.656Z,1034.64
2017-09-20T01:34:29.647Z,1034.62
2017-09-20T01:35:29.638Z,1034.62
2017-09-20T01:36:29.629Z,1034.61
2017-09-20T01:37:29.619Z,1034.63
2017-09-20T01:38:29.610Z,1034.62
2017-09-20T01:39:29.600Z,1034.63
2017-09-20T01:40:29.591Z,1034.62
2017-09-20T01:41:29.582Z,1034.69
2017-09-20T01:42:29.573Z,1034.62
2017-09-20T01:43:29.565Z,1034.65
2017-09-20T01:44:29.555Z,1034.65
2017-09-20T01:45:29.545Z,1034.61
2017-09-20T01:46:29.537Z,1034.61
2017-09-20T01:47:29.526Z,1034.58
2017-09-20T01:48:29.517Z,1034.59
2017-09-20T01:49:29.507Z,1034.59
2017-09-20T01:50:29.497Z,1034.57
2017-09-20T01:51:29.488Z,1034.62
2017-09-20T01:52:29.479Z,1034.64
2017-09-20T01:53:29.470Z,1034.6
2017-09-20T01:54:29.461Z,1034.64
2017-09-20T01:55:29.450Z,1034.65
2017-09-20T01:56:29.441Z,1034.65
2017-09-20T01:57:29.431Z,1034.62
2017-09-20T01:58:29.423Z,1034.6
2017-09-20T01:59:29.413Z,1034.64
2017-09-20T02:00:29.405Z,1034.64
2017-09-20T02:01:29.393Z,1034.62
2017-09-20T02:02:29.384Z,1034.66
2017-09-20T02:03:29.375Z,1034.61
2017-09-20T02:04:29.365Z,1034.64
2017-09-20T02:05:29.357Z,1034.67
2017-09-20T02:06:29.346Z,1034.61
2017-09-20T02:07:29.338Z,1034.64
2017-09-20T02:08:29.327Z,1034.66
2017-09-20T02:09:29.318Z,1034.64
2017-09-20T02:10:29.310Z,1034.65
2017-09-20T02:11:29.299Z,1034.71
2017-09-20T02:12:29.292Z,1034.69
2017-09-20T02:13:29.280Z,1034.67
2017-09-20T02:14:29.270Z,1034.71
2017-09-20T02:15:29.260Z,1034.69
2017-09-20T02:16:29.252Z,1034.72
2017-09-20T02:17:29.243Z,1034.73
2017-09-20T02:18:29.233Z,1034.75
2017-09-20T02:19:29.223Z,1034.75
2017-09-20T02:20:29.214Z,1034.72
2017-09-20T02:21:29.203Z,1034.76
2017-09-20T02:22:29.205Z,1034.73
2017-09-20T02:23:29.184Z,1034.73
2017-09-20T02:24:29.176Z,1034.72
2017-09-20T02:25:29.165Z,1034.73
2017-09-20T02:26:29.156Z,1034.72
2017-09-20T02:27:29.147Z,1034.76
2017-09-20T02:28:29.138Z,1034.75
2017-09-20T02:29:29.129Z,1034.72
2017-09-20T02:30:29.118Z,1034.76
2017-09-20T02:31:29.108Z,1034.77
2017-09-20T02:32:29.099Z,1034.76
2017-09-20T02:33:29.089Z,1034.75
2017-09-20T02:34:29.079Z,1034.78
2017-09-20T02:35:29.069Z,1034.79
2017-09-20T02:36:29.060Z,1034.82
2017-09-20T02:37:29.053Z,1034.82
2017-09-20T02:38:29.041Z,1034.85
2017-09-20T02:39:29.031Z,1034.81
2017-09-20T02:40:29.023Z,1034.82
2017-09-20T02:41:29.012Z,1034.84
2017-09-20T02:42:29.003Z,1034.88
2017-09-20T02:43:28.994Z,1034.85
2017-09-20T02:44:28.989Z,1034.88
2017-09-20T02:45:28.975Z,1034.85
2017-09-20T02:46:28.964Z,1034.86
2017-09-20T02:47:28.954Z,1034.86
2017-09-20T02:48:28.945Z,1034.87
2017-09-20T02:49:28.936Z,1034.89
2017-09-20T02:50:28.926Z,1034.91
2017-09-20T02:51:28.917Z,1034.9
2017-09-20T02:52:28.907Z,1034.92
2017-09-20T02:53:28.897Z,1034.9
2017-09-20T02:54:28.886Z,1034.92
2017-09-20T02:55:28.878Z,1034.9
2017-09-20T02:56:28.868Z,1034.9
2017-09-20T02:57:28.857Z,1034.89
2017-09-20T02:58:28.849Z,1034.91
2017-09-20T02:59:28.837Z,1034.86
2017-09-20T03:00:28.830Z,1034.84
2017-09-20T03:01:28.819Z,1034.88
2017-09-20T03:02:28.810Z,1034.85
2017-09-20T03:03:28.800Z,1034.89
2017-09-20T03:04:28.822Z,1034.91
2017-09-20T03:05:28.785Z,1034.89
2017-09-20T03:06:28.770Z,1034.83
2017-09-20T03:07:28.760Z,1034.83
2017-09-20T03:08:28.751Z,1034.8
2017-09-20T03:09:28.741Z,1034.89
2017-09-20T03:10:28.732Z,1034.87
2017-09-20T03:11:28.722Z,1034.84
2017-09-20T03:12:28.713Z,1034.83
2017-09-20T03:13:28.707Z,1034.86
2017-09-20T03:14:28.692Z,1034.84
2017-09-20T03:15:28.683Z,1034.86
2017-09-20T03:16:28.674Z,1034.84
2017-09-20T03:17:28.665Z,1034.89
2017-09-20T03:18:28.654Z,1034.85
2017-09-20T03:19:28.646Z,1034.88
2017-09-20T03:20:28.635Z,1034.9
2017-09-20T03:21:28.626Z,1034.9
2017-09-20T03:22:28.616Z,1034.88
2017-09-20T03:23:28.606Z,1034.89
2017-09-20T03:24:28.596Z,1034.88
2017-09-20T03:25:28.589Z,1034.87
2017-09-20T03:26:28.576Z,1034.84
2017-09-20T03:27:28.573Z,1034.89
2017-09-20T03:28:28.558Z,1034.96
2017-09-20T03:29:28.549Z,1034.94
2017-09-20T03:30:28.538Z,1034.93
2017-09-20T03:31:28.529Z,1034.95
2017-09-20T03:32:28.519Z,1034.95
2017-09-20T03:33:28.508Z,1034.96
2017-09-20T03:34:28.499Z,1034.97
2017-09-20T03:35:28.489Z,1034.98
2017-09-20T03:36:28.479Z,1034.96
2017-09-20T03:37:28.469Z,1034.98
2017-09-20T03:38:28.460Z,1034.99
2017-09-20T03:39:28.449Z,1034.99
2017-09-20T03:40:28.440Z,1035.01
2017-09-20T03:41:28.431Z,1035.04
2017-09-20T03:42:28.420Z,1035
2017-09-20T03:43:28.411Z,1035.02
2017-09-20T03:44:28.400Z,1035.03
2017-09-20T03:45:28.392Z,1034.98
2017-09-20T03:46:28.383Z,1035.06
2017-09-20T03:47:28.371Z,1035.08
2017-09-20T03:48:28.361Z,1035.09
2017-09-20T03:49:28.353Z,1035.04
2017-09-20T03:50:28.343Z,1035.09
2017-09-20T03:51:28.341Z,1035.08
2017-09-20T03:52:28.323Z,1035.08
2017-09-20T03:53:28.314Z,1035.1
2017-09-20T03:54:28.303Z,1035.08
2017-09-20T03:55:28.294Z,1035.12
2017-09-20T03:56:28.285Z,1035.09
2017-09-20T03:57:28.283Z,1035.1
2017-09-20T03:58:28.264Z,1035.14
2017-09-20T03:59:28.254Z,1035.16
2017-09-20T04:00:28.245Z,1035.16
2017-09-20T04:01:28.233Z,1035.2
2017-09-20T04:02:28.225Z,1035.19
2017-09-20T04:03:28.216Z,1035.2
2017-09-20T04:04:28.206Z,1035.17
2017-09-20T04:05:28.194Z,1035.19
2017-09-20T04:06:28.186Z,1035.16
2017-09-20T04:07:28.175Z,1035.19
2017-09-20T04:08:28.169Z,1035.19
2017-09-20T04:09:28.157Z,1035.19
2017-09-20T04:10:28.146Z,1035.13
2017-09-20T04:11:28.137Z,1035.2
2017-09-20T04:12:28.126Z,1035.14
2017-09-20T04:13:28.117Z,1035.15
2017-09-20T04:14:28.111Z,1035.12
2017-09-20T04:15:28.098Z,1035.12
2017-09-20T04:16:28.087Z,1035.1
2017-09-20T04:17:28.079Z,1035.12
2017-09-20T04:18:28.068Z,1035.16
2017-09-20T04:19:28.060Z,1035.14
2017-09-20T04:20:28.049Z,1035.09
2017-09-20T04:21:28.038Z,1035.11
2017-09-20T04:22:28.030Z,1035.08
2017-09-20T04:23:28.019Z,1035.03
2017-09-20T04:24:28.010Z,1034.98
2017-09-20T04:25:28.001Z,1035
2017-09-20T04:26:27.991Z,1035.03
2017-09-20T04:27:27.980Z,1034.96
2017-09-20T04:28:27.971Z,1034.92
2017-09-20T04:29:27.962Z,1034.84
2017-09-20T04:30:27.952Z,1034.79
2017-09-20T04:31:27.942Z,1034.73
2017-09-20T04:32:27.933Z,1034.68
2017-09-20T04:33:27.923Z,1034.63
2017-09-20T04:34:27.912Z,1034.6
2017-09-20T04:35:27.903Z,1034.55
2017-09-20T04:36:27.894Z,1034.5
2017-09-20T04:37:27.885Z,1034.51
2017-09-20T04:38:27.875Z,1034.52
2017-09-20T04:39:27.865Z,1034.47
2017-09-20T04:40:27.857Z,1034.44
2017-09-20T04:41:27.847Z,1034.43
2017-09-20T04:42:27.838Z,1034.39
2017-09-20T04:43:27.829Z,1034.36
2017-09-20T04:44:27.819Z,1034.36
2017-09-20T04:45:27.809Z,1034.39
2017-09-20T04:46:27.800Z,1034.37
2017-09-20T04:47:27.792Z,1034.34
2017-09-20T04:48:27.782Z,1034.3
2017-09-20T04:49:27.772Z,1034.26
2017-09-20T04:50:27.764Z,1034.26
2017-09-20T04:51:27.756Z,1034.28
2017-09-20T04:52:27.746Z,1034.23
2017-09-20T04:53:27.739Z,1034.22
2017-09-20T04:54:27.730Z,1034.21
2017-09-20T04:55:27.724Z,1034.17
2017-09-20T04:56:27.712Z,1034.18
2017-09-20T04:57:27.703Z,1034.16
2017-09-20T04:58:27.695Z,1034.16
2017-09-20T04:59:27.687Z,1034.16
2017-09-20T05:00:27.676Z,1034.13
2017-09-20T05:01:27.668Z,1034.11
2017-09-20T05:02:27.660Z,1034.14
2017-09-20T05:03:27.651Z,1034.13
2017-09-20T05:04:27.641Z,1034.03
2017-09-20T05:05:27.634Z,1034.04
2017-09-20T05:06:27.625Z,1034.01
2017-09-20T05:07:27.617Z,1034.04
2017-09-20T05:08:27.608Z,1033.99
2017-09-20T05:09:27.600Z,1033.97
2017-09-20T05:10:27.590Z,1033.96
2017-09-20T05:11:27.582Z,1033.93
2017-09-20T05:12:27.575Z,1033.89
2017-09-20T05:13:27.567Z,1033.92
2017-09-20T05:14:27.558Z,1033.88
2017-09-20T05:15:27.550Z,1033.88
2017-09-20T05:16:27.541Z,1033.84
2017-09-20T05:17:27.533Z,1033.83
2017-09-20T05:18:27.525Z,1033.81
2017-09-20T05:19:27.516Z,1033.79
2017-09-20T05:20:27.509Z,1033.77
2017-09-20T05:21:27.501Z,1033.73
2017-09-20T05:22:27.492Z,1033.71
2017-09-20T05:23:27.484Z,1033.69
2017-09-20T05:24:27.476Z,1033.69
2017-09-20T05:25:27.468Z,1033.72
2017-09-20T05:26:27.459Z,1033.7
2017-09-20T05:27:27.451Z,1033.71
2017-09-20T05:28:27.443Z,1033.69
2017-09-20T05:29:27.435Z,1033.68
2017-09-20T05:30:27.427Z,1033.66
2017-09-20T05:31:27.421Z,1033.69
2017-09-20T05:32:27.416Z,1033.68
2017-09-20T05:33:27.405Z,1033.62
2017-09-20T05:34:27.401Z,1033.59
2017-09-20T05:35:27.388Z,1033.59
2017-09-20T05:36:27.380Z,1033.56
2017-09-20T05:37:27.372Z,1033.51
2017-09-20T05:38:27.366Z,1033.5
2017-09-20T05:39:27.358Z,1033.53
2017-09-20T05:40:27.349Z,1033.53
2017-09-20T05:41:27.342Z,1033.52
2017-09-20T05:42:27.335Z,1033.46
2017-09-20T05:43:27.326Z,1033.44
2017-09-20T05:44:27.318Z,1033.44
2017-09-20T05:45:27.312Z,1033.42
2017-09-20T05:46:27.304Z,1033.42
2017-09-20T05:47:27.295Z,1033.36
2017-09-20T05:48:27.287Z,1033.39
2017-09-20T05:49:27.281Z,1033.39
2017-09-20T05:50:27.273Z,1033.41
2017-09-20T05:51:27.266Z,1033.41
2017-09-20T05:52:27.258Z,1033.41
2017-09-20T05:53:27.251Z,1033.4
2017-09-20T05:54:27.244Z,1033.41
2017-09-20T05:55:27.237Z,1033.39
2017-09-20T05:56:27.229Z,1033.38
2017-09-20T05:57:27.221Z,1033.38
2017-09-20T05:58:27.214Z,1033.36
2017-09-20T05:59:27.207Z,1033.32
2017-09-20T06:00:27.199Z,1033.32
2017-09-20T06:01:27.227Z,1033.31
2017-09-20T06:02:27.184Z,1033.29
2017-09-20T06:03:27.177Z,1033.31
2017-09-20T06:04:27.169Z,1033.31
2017-09-20T06:05:27.163Z,1033.31
2017-09-20T06:06:27.154Z,1033.26
2017-09-20T06:07:27.148Z,1033.27
2017-09-20T06:08:27.141Z,1033.25
2017-09-20T06:09:27.137Z,1033.2
2017-09-20T06:10:27.127Z,1033.17
2017-09-20T06:11:27.119Z,1033.14
2017-09-20T06:12:27.112Z,1033.13
2017-09-20T06:13:27.104Z,1033.14
2017-09-20T06:14:27.098Z,1033.1
2017-09-20T06:15:27.090Z,1033.09
2017-09-20T06:16:27.084Z,1033.05
2017-09-20T06:17:27.075Z,1033.07
2017-09-20T06:18:27.070Z,1033.06
2017-09-20T06:19:27.065Z,1033.07
2017-09-20T06:20:27.055Z,1033.04
2017-09-20T06:21:27.049Z,1033
2017-09-20T06:22:27.042Z,1033
2017-09-20T06:23:27.036Z,1032.94
2017-09-20T06:24:27.027Z,1032.93
2017-09-20T06:25:27.020Z,1032.94
2017-09-20T06:26:27.015Z,1032.96
2017-09-20T06:27:27.008Z,1032.95
2017-09-20T06:28:27.002Z,1032.93
2017-09-20T06:29:26.996Z,1032.97
2017-09-20T06:30:26.989Z,1032.96
2017-09-20T06:31:26.981Z,1032.99
2017-09-20T06:32:26.975Z,1033.07
2017-09-20T06:33:26.967Z,1033.08
2017-09-20T06:34:26.961Z,1033.05
2017-09-20T06:35:26.955Z,1033.02
2017-09-20T06:36:26.947Z,1033.02
2017-09-20T06:37:26.941Z,1032.98
2017-09-20T06:38:26.935Z,1033.04
2017-09-20T06:39:26.928Z,1033.08
2017-09-20T06:40:26.922Z,1033.06
2017-09-20T06:41:26.916Z,1033.06
2017-09-20T06:42:26.907Z,1033.04
2017-09-20T06:43:26.902Z,1033.02
2017-09-20T06:44:26.895Z,1033.04
2017-09-20T06:45:26.889Z,1032.99
2017-09-20T06:46:26.881Z,1033.01
2017-09-20T06:47:26.875Z,1032.97
2017-09-20T06:48:26.870Z,1032.96
2017-09-20T06:49:26.862Z,1032.95
2017-09-20T06:50:26.856Z,1032.9
2017-09-20T06:51:26.849Z,1032.87
2017-09-20T06:52:26.842Z,1032.79
2017-09-20T06:53:26.836Z,1032.78
2017-09-20T06:54:26.829Z,1032.75
2017-09-20T06:55:26.824Z,1032.61
2017-09-20T06:56:26.817Z,1032.51
2017-09-20T06:57:26.812Z,1032.51
2017-09-20T06:58:26.808Z,1032.45
2017-09-20T06:59:26.801Z,1032.4
2017-09-20T07:00:26.791Z,1032.36
2017-09-20T07:01:26.786Z,1032.33
2017-09-20T07:02:26.782Z,1032.3
2017-09-20T07:03:26.775Z,1032.33
2017-09-20T07:04:26.768Z,1032.35
2017-09-20T07:05:26.762Z,1032.32
2017-09-20T07:06:26.757Z,1032.34
2017-09-20T07:07:26.751Z,1032.36
2017-09-20T07:08:26.746Z,1032.39
2017-09-20T07:09:26.740Z,1032.39
2017-09-20T07:10:26.735Z,1032.36
2017-09-20T07:11:26.728Z,1032.33
2017-09-20T07:12:26.723Z,1032.33
2017-09-20T07:13:26.718Z,1032.31
2017-09-20T07:14:26.712Z,1032.22
2017-09-20T07:15:26.706Z,1032.18
2017-09-20T07:16:26.700Z,1031.94
2017-09-20T07:17:26.696Z,1031.48
2017-09-20T07:18:26.695Z,1031.21
2017-09-20T07:19:26.684Z,1030.46
2017-09-20T07:20:26.679Z,1029.68
2017-09-20T07:21:26.675Z,1029.38
2017-09-20T07:22:26.671Z,1029.01
2017-09-20T07:23:26.666Z,1028.95
2017-09-20T07:24:26.662Z,1029
2017-09-20T07:25:26.660Z,1028.91
2017-09-20T07:26:26.656Z,1029.08
2017-09-20T07:27:26.653Z,1029.24
2017-09-20T07:28:26.650Z,1029.38
2017-09-20T07:29:26.646Z,1029.55
2017-09-20T07:30:26.642Z,1029.69
2017-09-20T07:31:26.642Z,1029.87
2017-09-20T07:32:26.638Z,1030
2017-09-20T07:33:26.634Z,1030.24
2017-09-20T07:34:26.633Z,1030.45
2017-09-20T07:35:26.629Z,1030.58
2017-09-20T07:36:26.627Z,1030.79
2017-09-20T07:37:26.624Z,1030.94
2017-09-20T07:38:26.622Z,1030.92
2017-09-20T07:39:26.618Z,1030.75
2017-09-20T07:40:26.617Z,1030.31
2017-09-20T07:41:26.612Z,1030.08
2017-09-20T07:42:26.610Z,1029.93
2017-09-20T07:43:26.613Z,1029.6
2017-09-20T07:44:26.606Z,1029.59
2017-09-20T07:45:26.604Z,1029.25
2017-09-20T07:46:26.602Z,1029.26
2017-09-20T07:47:26.600Z,1029.06
2017-09-20T07:48:26.597Z,1028.82
2017-09-20T07:49:26.595Z,1028.61
2017-09-20T07:50:26.595Z,1028.34
2017-09-20T07:51:26.593Z,1028.25
2017-09-20T07:52:26.592Z,1028.22
2017-09-20T07:53:26.590Z,1028.2
2017-09-20T07:54:26.591Z,1028.12
2017-09-20T07:55:26.589Z,1027.96
2017-09-20T07:56:26.588Z,1027.83
2017-09-20T07:57:26.589Z,1027.7
2017-09-20T07:58:26.589Z,1027.73
2017-09-20T07:59:26.588Z,1028.1
2017-09-20T08:00:26.587Z,1028.49
2017-09-20T08:01:26.588Z,1028.92
2017-09-20T08:02:26.588Z,1029.21
2017-09-20T08:03:26.588Z,1029.42
2017-09-20T08:04:26.589Z,1029.62
2017-09-20T08:05:26.588Z,1029.85
2017-09-20T08:06:26.587Z,1029.97
2017-09-20T08:07:26.586Z,1030.15
2017-09-20T08:08:26.585Z,1030.32
2017-09-20T08:09:26.584Z,1030.49
2017-09-20T08:10:26.584Z,1030.59
2017-09-20T08:11:26.582Z,1030.71
2017-09-20T08:12:26.580Z,1030.73
2017-09-20T08:13:26.579Z,1030.86
2017-09-20T08:14:26.578Z,1030.93
2017-09-20T08:15:26.576Z,1030.98
2017-09-20T08:16:26.574Z,1031.06
2017-09-20T08:17:26.571Z,1031.08
2017-09-20T08:18:26.569Z,1031.19
2017-09-20T08:19:26.567Z,1031.25
2017-09-20T08:20:26.565Z,1031.26
2017-09-20T08:21:26.562Z,1031.33
2017-09-20T08:22:26.560Z,1031.34
2017-09-20T08:23:26.557Z,1031.33
2017-09-20T08:24:26.554Z,1031.37
2017-09-20T08:25:26.552Z,1031.4
2017-09-20T08:26:26.552Z,1031.41
2017-09-20T08:27:26.547Z,1031.52
2017-09-20T08:28:26.542Z,1031.52
2017-09-20T08:29:26.545Z,1031.55
2017-09-20T08:30:26.538Z,1031.37
2017-09-20T08:31:26.535Z,1031.11
2017-09-20T08:32:26.530Z,1031.02
2017-09-20T08:33:26.528Z,1030.97
2017-09-20T08:34:26.528Z,1031.02
2017-09-20T08:35:26.522Z,1031
2017-09-20T08:36:26.518Z,1030.93
2017-09-20T08:37:26.517Z,1030.77
2017-09-20T08:38:26.513Z,1030.61
2017-09-20T08:39:26.511Z,1030.59
2017-09-20T08:40:26.508Z,1030.6
2017-09-20T08:41:26.506Z,1030.67
2017-09-20T08:42:26.502Z,1030.66
2017-09-20T08:43:26.500Z,1030.68
2017-09-20T08:44:26.497Z,1030.71
2017-09-20T08:45:26.493Z,1030.68
2017-09-20T08:46:26.493Z,1030.58
2017-09-20T08:47:26.487Z,1030.57
2017-09-20T08:48:26.486Z,1030.6
2017-09-20T08:49:26.483Z,1030.57
2017-09-20T08:50:26.480Z,1030.62
2017-09-20T08:51:26.477Z,1030.67
2017-09-20T08:52:26.475Z,1030.69
2017-09-20T08:53:26.473Z,1030.88
2017-09-20T08:54:26.469Z,1030.97
2017-09-20T08:55:26.468Z,1031.08
2017-09-20T08:56:26.464Z,1031.02
2017-09-20T08:57:26.462Z,1031.05
2017-09-20T08:58:26.458Z,1031.16
2017-09-20T08:59:26.456Z,1031.18
2017-09-20T09:00:26.455Z,1031.22
2017-09-20T09:01:26.455Z,1031.22
2017-09-20T09:02:26.449Z,1031.21
2017-09-20T09:03:26.446Z,1031.32
2017-09-20T09:04:26.443Z,1031.37
2017-09-20T09:05:26.439Z,1031.43
2017-09-20T09:06:26.438Z,1031.41
2017-09-20T09:07:26.435Z,1031.45
2017-09-20T09:08:26.431Z,1031.46
2017-09-20T09:09:26.429Z,1031.5
2017-09-20T09:10:26.426Z,1031.52
2017-09-20T09:11:26.422Z,1031.56
2017-09-20T09:12:26.422Z,1031.56
2017-09-20T09:13:26.416Z,1031.59
2017-09-20T09:14:26.413Z,1031.53
2017-09-20T09:15:26.410Z,1031.53
2017-09-20T09:16:26.405Z,1031.49
2017-09-20T09:17:26.404Z,1031.43
2017-09-20T09:18:26.400Z,1031.46
2017-09-20T09:19:26.397Z,1031.42
2017-09-20T09:20:26.392Z,1031.36
2017-09-20T09:21:26.390Z,1031.3
2017-09-20T09:22:26.389Z,1031.1
2017-09-20T09:23:26.384Z,1031
2017-09-20T09:24:26.380Z,1030.89
2017-09-20T09:25:26.377Z,1030.8
2017-09-20T09:26:26.377Z,1030.81
2017-09-20T09:27:26.371Z,1030.81
2017-09-20T09:28:26.369Z,1030.71
2017-09-20T09:29:26.366Z,1030.67
2017-09-20T09:30:26.363Z,1030.63
2017-09-20T09:31:26.361Z,1030.5
2017-09-20T09:32:26.356Z,1030.48
2017-09-20T09:33:26.355Z,1030.56
2017-09-20T09:34:26.352Z,1030.59
2017-09-20T09:35:26.350Z,1030.67
2017-09-20T09:36:26.346Z,1030.69
2017-09-20T09:37:26.343Z,1030.74
2017-09-20T09:38:26.341Z,1030.7
2017-09-20T09:39:26.338Z,1030.6
2017-09-20T09:40:26.337Z,1030.55
2017-09-20T09:41:26.333Z,1030.45
2017-09-20T09:42:26.330Z,1030.29
2017-09-20T09:43:26.329Z,1030.24
2017-09-20T09:44:26.326Z,1030.2
2017-09-20T09:45:26.322Z,1030.11
2017-09-20T09:46:26.321Z,1030.1
2017-09-20T09:47:26.325Z,1030.1
2017-09-20T09:48:26.316Z,1029.96
2017-09-20T09:49:26.314Z,1029.9
2017-09-20T09:50:26.311Z,1029.9
2017-09-20T09:51:26.311Z,1029.85
2017-09-20T09:52:26.306Z,1029.78
2017-09-20T09:53:26.304Z,1029.69
2017-09-20T09:54:26.304Z,1029.71
2017-09-20T09:55:26.301Z,1029.73
2017-09-20T09:56:26.299Z,1029.88
2017-09-20T09:57:26.297Z,1030.02
2017-09-20T09:58:26.295Z,1030.14
2017-09-20T09:59:26.292Z,1030.22
2017-09-20T10:00:26.291Z,1030.25
2017-09-20T10:01:26.290Z,1030.28
2017-09-20T10:02:26.287Z,1030.22
2017-09-20T10:03:26.288Z,1030.14
2017-09-20T10:04:26.284Z,1030.03
2017-09-20T10:05:26.281Z,1029.94
2017-09-20T10:06:26.281Z,1029.87
2017-09-20T10:07:26.278Z,1029.86
2017-09-20T10:08:26.277Z,1029.84
2017-09-20T10:09:26.274Z,1029.81
2017-09-20T10:10:26.272Z,1029.78
2017-09-20T10:11:26.270Z,1029.74
2017-09-20T10:12:26.268Z,1029.67
2017-09-20T10:13:26.268Z,1029.69
2017-09-20T10:14:26.265Z,1029.62
2017-09-20T10:15:26.263Z,1029.58
2017-09-20T10:16:26.262Z,1029.59
2017-09-20T10:17:26.263Z,1029.65
2017-09-20T10:18:26.257Z,1029.74
2017-09-20T10:19:26.257Z,1029.79
2017-09-20T10:20:26.256Z,1029.81
2017-09-20T10:21:26.252Z,1029.9
2017-09-20T10:22:26.251Z,1029.88
2017-09-20T10:23:26.249Z,1029.93
2017-09-20T10:24:26.249Z,1029.97
2017-09-20T10:25:26.246Z,1029.99
2017-09-20T10:26:26.245Z,1030.02
2017-09-20T10:27:26.243Z,1030.02
2017-09-20T10:28:26.242Z,1030.11
2017-09-20T10:29:26.239Z,1030.14
2017-09-20T10:30:26.238Z,1030.22
2017-09-20T10:31:26.235Z,1030.26
2017-09-20T10:32:26.234Z,1030.27
2017-09-20T10:33:26.232Z,1030.33
2017-09-20T10:34:26.231Z,1030.36
2017-09-20T10:35:26.228Z,1030.35
2017-09-20T10:36:26.226Z,1030.34
2017-09-20T10:37:26.223Z,1030.32
2017-09-20T10:38:26.223Z,1030.33
2017-09-20T10:39:26.221Z,1030.29
2017-09-20T10:40:26.218Z,1030.29
2017-09-20T10:41:26.215Z,1030.25
2017-09-20T10:42:26.213Z,1030.27
2017-09-20T10:43:26.210Z,1030.23
2017-09-20T10:44:26.209Z,1030.21
2017-09-20T10:45:26.207Z,1030.19
2017-09-20T10:46:26.206Z,1030.21
2017-09-20T10:47:26.203Z,1030.18
2017-09-20T10:48:26.207Z,1030.1
2017-09-20T10:49:26.199Z,1030.16
2017-09-20T10:50:26.198Z,1030.11
2017-09-20T10:51:26.194Z,1030.03
2017-09-20T10:52:26.193Z,1029.87
2017-09-20T10:53:26.191Z,1029.72
2017-09-20T10:54:26.188Z,1029.58
2017-09-20T10:55:26.186Z,1029.41
2017-09-20T10:56:26.186Z,1029.28
2017-09-20T10:57:26.183Z,1029.1
2017-09-20T10:58:26.180Z,1028.94
2017-09-20T10:59:26.179Z,1028.95
2017-09-20T11:00:26.178Z,1028.96
2017-09-20T11:01:26.427Z,1028.94
2017-09-20T11:02:26.175Z,1029.03
2017-09-20T11:03:26.175Z,1029.07
2017-09-20T11:04:26.175Z,1029.06
2017-09-20T11:05:26.172Z,1029.07
2017-09-20T11:06:26.170Z,1029.08
2017-09-20T11:07:26.170Z,1029.06
2017-09-20T11:08:26.170Z,1029.06
2017-09-20T11:09:26.168Z,1029.06
2017-09-20T11:10:26.167Z,1029.01
2017-09-20T11:11:26.167Z,1028.94
2017-09-20T11:12:26.186Z,1028.89
2017-09-20T11:13:26.165Z,1028.84
2017-09-20T11:14:26.168Z,1028.81
2017-09-20T11:15:26.165Z,1028.78
2017-09-20T11:16:26.163Z,1028.85
2017-09-20T11:17:26.162Z,1028.96
2017-09-20T11:18:26.160Z,1029.07
2017-09-20T11:19:26.161Z,1029.11
2017-09-20T11:20:26.160Z,1029.25
2017-09-20T11:21:26.159Z,1029.43
2017-09-20T11:22:26.158Z,1029.46
2017-09-20T11:23:26.157Z,1029.53
2017-09-20T11:24:26.156Z,1029.65
2017-09-20T11:25:26.155Z,1029.68
2017-09-20T11:26:26.155Z,1029.66
2017-09-20T11:27:26.152Z,1029.66
2017-09-20T11:28:26.150Z,1029.66
2017-09-20T11:29:26.151Z,1029.57
2017-09-20T11:30:26.150Z,1029.55
2017-09-20T11:31:26.147Z,1029.42
2017-09-20T11:32:26.146Z,1029.36
2017-09-20T11:33:26.145Z,1029.16
2017-09-20T11:34:26.143Z,1029.09
2017-09-20T11:35:26.143Z,1029.01
2017-09-20T11:36:26.142Z,1029
2017-09-20T11:37:26.141Z,1029.16
2017-09-20T11:38:26.139Z,1029.3
2017-09-20T11:39:26.139Z,1029.34
2017-09-20T11:40:26.137Z,1029.46
2017-09-20T11:41:26.164Z,1029.54
2017-09-20T11:42:26.138Z,1029.55
2017-09-20T11:43:26.133Z,1029.64
2017-09-20T11:44:26.132Z,1029.69
2017-09-20T11:45:26.130Z,1029.78
2017-09-20T11:46:26.130Z,1029.8
2017-09-20T11:47:26.127Z,1029.84
2017-09-20T11:48:26.127Z,1029.83
2017-09-20T11:49:26.125Z,1029.85
2017-09-20T11:50:26.123Z,1029.88
2017-09-20T11:51:26.123Z,1029.89
2017-09-20T11:52:26.120Z,1029.8
2017-09-20T11:53:26.117Z,1029.79
2017-09-20T11:54:26.148Z,1029.68
2017-09-20T11:55:26.116Z,1029.65
2017-09-20T11:56:26.117Z,1029.63
2017-09-20T11:57:26.113Z,1029.64
2017-09-20T11:58:26.110Z,1029.67
2017-09-20T11:59:26.108Z,1029.65
2017-09-20T12:00:26.107Z,1029.65
2017-09-20T12:01:26.105Z,1029.66
2017-09-20T12:02:26.104Z,1029.73
2017-09-20T12:03:26.103Z,1029.74
2017-09-20T12:04:26.101Z,1029.8
2017-09-20T12:05:26.099Z,1029.89
2017-09-20T12:06:26.098Z,1029.93
2017-09-20T12:07:26.095Z,1029.99
2017-09-20T12:08:26.094Z,1029.97